Time;durP1;ratioP1;P1;durP2;ratioP2;P2;SDS_P1;SDS_P2;PMS_P1;PMS_P2;Temp;Humidity;BMP_temperature;BMP_pressure;BME280_temperature;BME280_humidity;BME280_pressure;Samples;Min_cycle;Max_cycle;Signal;HPM_P1;HPM_P2
2022/03/24 05:01:07;;;;;;;52.70;24.45;;;3.20;99.90;;;;;;5579313;23;20233;-67
2022/03/24 05:03:34;;;;;;;49.85;25.55;;;3.20;99.90;;;;;;4919621;29;20211;-68
2022/03/24 05:06:00;;;;;;;49.05;27.17;;;3.20;99.90;;;;;;4928240;29;20294;-68
2022/03/24 05:08:27;;;;;;;47.60;23.38;;;3.20;99.90;;;;;;4919762;29;20702;-68
2022/03/24 05:10:54;;;;;;;54.45;25.58;;;3.20;99.90;;;;;;4915215;29;20231;-69
2022/03/24 05:13:20;;;;;;;49.05;27.10;;;3.20;99.90;;;;;;4914752;29;20214;-69
2022/03/24 05:15:47;;;;;;;47.05;27.40;;;3.20;99.90;;;;;;4897122;29;20639;-68
2022/03/24 05:18:15;;;;;;;51.63;25.75;;;3.10;99.90;;;;;;4907871;29;20242;-69
2022/03/24 05:20:43;;;;;;;47.10;25.73;;;3.10;99.90;;;;;;4896279;29;20235;-69
2022/03/24 05:23:09;;;;;;;48.72;25.20;;;3.10;99.90;;;;;;4912634;29;20651;-69
2022/03/24 05:25:36;;;;;;;49.28;24.38;;;3.10;99.90;;;;;;4896960;29;20282;-69
2022/03/24 05:28:04;;;;;;;46.10;25.75;;;3.10;99.90;;;;;;4914084;29;20230;-68
2022/03/24 05:30:30;;;;;;;43.13;24.40;;;3.10;99.90;;;;;;4915053;29;20623;-68
2022/03/24 05:32:57;;;;;;;49.22;25.25;;;3.10;99.90;;;;;;4915578;29;20239;-68
2022/03/24 05:35:25;;;;;;;48.25;22.90;;;3.10;99.90;;;;;;4915649;29;20223;-69
2022/03/24 05:37:52;;;;;;;41.60;24.05;;;3.20;99.90;;;;;;4914814;29;20207;-67
2022/03/24 05:40:18;;;;;;;52.50;23.13;;;3.20;99.90;;;;;;4915233;29;20553;-68
2022/03/24 05:42:45;;;;;;;48.55;26.08;;;3.20;99.90;;;;;;4913804;29;20235;-67
2022/03/24 05:45:11;;;;;;;41.47;23.40;;;3.20;99.90;;;;;;4915109;29;20237;-66
2022/03/24 05:47:39;;;;;;;47.55;25.95;;;3.20;99.90;;;;;;4915424;29;20256;-67
2022/03/24 05:50:06;;;;;;;46.10;25.33;;;3.30;99.90;;;;;;4913711;29;20210;-67
2022/03/24 05:52:34;;;;;;;41.42;22.77;;;3.30;99.90;;;;;;4914776;29;20272;-67
2022/03/24 05:55:01;;;;;;;44.67;25.00;;;3.30;99.90;;;;;;4909540;29;20301;-67
2022/03/24 05:57:28;;;;;;;44.25;23.05;;;3.40;99.90;;;;;;4907682;29;20202;-67
2022/03/24 05:59:54;;;;;;;47.20;25.00;;;3.40;99.90;;;;;;4911637;29;20202;-67
2022/03/24 06:02:21;;;;;;;44.92;22.83;;;3.50;99.90;;;;;;4914730;29;20227;-68
2022/03/24 06:04:48;;;;;;;44.45;24.65;;;3.50;99.90;;;;;;4912738;29;20254;-68
2022/03/24 06:07:15;;;;;;;46.53;23.98;;;3.60;99.90;;;;;;4909701;29;20207;-68
2022/03/24 06:09:44;;;;;;;43.47;24.27;;;3.60;99.90;;;;;;4913477;29;20278;-68
2022/03/24 06:12:13;;;;;;;44.67;23.48;;;3.70;99.90;;;;;;4914596;29;20253;-68
2022/03/24 06:14:40;;;;;;;43.92;24.50;;;3.70;99.90;;;;;;4898503;29;20364;-68
2022/03/24 06:17:07;;;;;;;38.30;23.20;;;3.80;99.90;;;;;;4905781;29;20207;-68
2022/03/24 06:19:35;;;;;;;36.20;21.80;;;3.80;99.90;;;;;;4913523;29;20277;-67
2022/03/24 06:22:02;;;;;;;41.55;22.42;;;3.90;99.90;;;;;;4915379;29;20231;-68
2022/03/24 06:24:29;;;;;;;45.53;23.75;;;4.00;99.90;;;;;;4915205;29;20649;-68
2022/03/24 06:26:58;;;;;;;39.65;23.48;;;4.00;99.90;;;;;;4914279;29;20330;-68
2022/03/24 06:29:24;;;;;;;43.83;24.40;;;4.10;99.90;;;;;;4914473;29;20281;-67
2022/03/24 06:31:51;;;;;;;42.60;24.73;;;4.20;99.90;;;;;;4913688;29;20247;-68
2022/03/24 06:34:18;;;;;;;47.55;25.60;;;4.20;99.90;;;;;;4914434;29;20214;-67
2022/03/24 06:36:44;;;;;;;59.80;30.90;;;4.30;99.90;;;;;;4910615;29;20211;-67
2022/03/24 06:39:11;;;;;;;41.80;25.50;;;4.40;99.90;;;;;;4914312;29;20592;-68
2022/03/24 06:41:38;;;;;;;44.00;27.50;;;4.50;99.90;;;;;;4913387;29;20715;-68
2022/03/24 06:44:07;;;;;;;76.03;40.05;;;4.60;99.90;;;;;;4895893;29;20211;-68
2022/03/24 06:46:34;;;;;;;60.70;30.70;;;4.60;99.90;;;;;;4907690;29;20214;-68
2022/03/24 06:49:01;;;;;;;62.67;33.45;;;4.70;99.90;;;;;;4913768;29;20227;-67
2022/03/24 06:51:28;;;;;;;53.25;30.40;;;4.80;99.90;;;;;;4913044;29;20730;-68
2022/03/24 06:53:54;;;;;;;42.50;25.50;;;4.90;99.90;;;;;;4913805;29;20548;-68
2022/03/24 06:56:21;;;;;;;48.88;26.33;;;4.90;99.90;;;;;;4913416;29;20240;-67
2022/03/24 06:58:48;;;;;;;51.83;25.80;;;5.10;99.90;;;;;;4913845;29;20202;-68
2022/03/24 07:01:16;;;;;;;39.92;24.90;;;5.20;99.90;;;;;;4903950;29;20238;-67
2022/03/24 07:03:42;;;;;;;46.83;27.52;;;5.20;99.90;;;;;;4914067;29;20615;-68
2022/03/24 07:06:09;;;;;;;40.45;23.67;;;5.30;99.90;;;;;;4915496;29;20218;-68
2022/03/24 07:08:36;;;;;;;41.50;23.60;;;5.40;99.90;;;;;;4914749;29;20227;-67
2022/03/24 07:11:03;;;;;;;36.85;18.73;;;5.40;99.90;;;;;;4912638;29;20241;-68
2022/03/24 07:13:30;;;;;;;46.03;24.50;;;5.50;99.90;;;;;;4914303;29;20687;-67
2022/03/24 07:15:57;;;;;;;41.03;26.35;;;5.50;99.90;;;;;;4914238;29;20293;-68
2022/03/24 07:18:25;;;;;;;46.97;26.10;;;5.60;99.90;;;;;;4913805;29;20210;-68
2022/03/24 07:20:52;;;;;;;46.63;25.58;;;5.70;99.90;;;;;;4912953;29;20230;-67
2022/03/24 07:23:19;;;;;;;41.83;24.30;;;5.80;99.90;;;;;;4902114;29;20633;-68
2022/03/24 07:25:45;;;;;;;43.05;22.80;;;5.90;99.90;;;;;;4905528;29;20226;-68
2022/03/24 07:28:12;;;;;;;42.60;24.13;;;6.00;99.90;;;;;;4909728;29;20639;-67
2022/03/24 07:30:39;;;;;;;44.95;23.60;;;6.10;99.90;;;;;;4913571;29;20289;-68
2022/03/24 07:33:09;;;;;;;41.65;22.98;;;6.20;99.90;;;;;;4913431;29;20753;-67
2022/03/24 07:35:37;;;;;;;41.55;21.10;;;6.30;99.90;;;;;;4911215;29;20215;-69
2022/03/24 07:38:04;;;;;;;33.83;20.88;;;6.40;99.90;;;;;;4913868;29;20345;-66
2022/03/24 07:40:31;;;;;;;37.53;21.13;;;6.50;99.90;;;;;;4912484;29;20203;-69
2022/03/24 07:42:58;;;;;;;43.05;24.25;;;6.60;99.90;;;;;;4914170;29;20218;-68
2022/03/24 07:45:25;;;;;;;35.33;21.23;;;6.80;99.90;;;;;;4913067;29;20257;-67
2022/03/24 07:48:12;;;;;;;39.10;22.50;;;6.90;99.90;;;;;;4914303;29;20246;-68
2022/03/24 07:50:42;;;;;;;39.78;20.90;;;7.00;99.90;;;;;;4910655;29;20819;-67
2022/03/24 07:53:24;;;;;;;37.22;21.35;;;7.10;99.90;;;;;;4912842;29;20218;-68
2022/03/24 07:55:51;;;;;;;44.10;23.42;;;7.20;99.90;;;;;;4912824;29;20234;-67
2022/03/24 07:58:18;;;;;;;34.70;21.63;;;7.30;99.90;;;;;;4916447;29;20627;-68
2022/03/24 08:00:45;;;;;;;34.15;18.30;;;7.50;99.90;;;;;;4926093;29;20231;-67
2022/03/24 08:03:13;;;;;;;40.85;21.70;;;7.70;99.90;;;;;;4928912;29;20201;-68
2022/03/24 08:05:42;;;;;;;35.30;20.55;;;7.80;99.90;;;;;;4927164;29;20206;-67
2022/03/24 08:08:09;;;;;;;35.78;21.23;;;7.90;99.90;;;;;;4909656;29;20694;-67
2022/03/24 08:10:36;;;;;;;34.58;19.83;;;8.00;99.90;;;;;;4912377;29;20315;-67
2022/03/24 08:13:04;;;;;;;38.70;20.77;;;8.10;99.90;;;;;;4914903;29;20557;-66
2022/03/24 08:15:30;;;;;;;40.30;20.83;;;8.20;99.90;;;;;;4916631;29;20254;-67
2022/03/24 08:17:57;;;;;;;38.22;21.38;;;8.30;99.90;;;;;;4916909;29;20273;-67
2022/03/24 08:20:24;;;;;;;33.30;19.58;;;8.50;99.90;;;;;;4915333;29;20202;-68
2022/03/24 08:22:52;;;;;;;28.20;15.70;;;8.50;99.90;;;;;;4916883;29;20655;-67
2022/03/24 08:25:19;;;;;;;45.25;22.50;;;8.70;99.90;;;;;;4916361;29;20218;-68
2022/03/24 08:27:45;;;;;;;35.83;20.38;;;8.80;99.90;;;;;;4909326;29;20277;-67
2022/03/24 08:30:13;;;;;;;32.65;20.35;;;8.90;99.90;;;;;;4915392;29;20960;-68
2022/03/24 08:32:40;;;;;;;27.13;17.65;;;9.00;99.90;;;;;;4915231;29;20518;-68
2022/03/24 08:35:07;;;;;;;35.38;20.45;;;9.00;99.90;;;;;;4915969;29;20234;-69
2022/03/24 08:37:34;;;;;;;36.30;20.52;;;9.10;99.90;;;;;;4902931;29;20280;-67
2022/03/24 08:40:02;;;;;;;38.25;23.50;;;9.20;99.90;;;;;;4912318;29;20292;-68
2022/03/24 08:42:28;;;;;;;37.10;21.75;;;9.40;99.90;;;;;;4915422;29;20237;-69
2022/03/24 08:44:55;;;;;;;29.73;18.20;;;9.50;99.90;;;;;;4916504;29;20608;-68
2022/03/24 08:47:22;;;;;;;35.80;20.65;;;9.60;99.90;;;;;;4914581;29;20576;-66
2022/03/24 08:49:48;;;;;;;35.92;20.95;;;9.80;99.90;;;;;;4914409;29;20222;-68
2022/03/24 08:52:15;;;;;;;46.42;29.67;;;9.90;99.90;;;;;;4915974;29;20222;-69
2022/03/24 08:54:42;;;;;;;41.58;26.08;;;9.90;99.90;;;;;;4917280;29;20210;-67
2022/03/24 08:57:10;;;;;;;37.85;22.45;;;10.00;99.90;;;;;;4923664;29;20262;-67
2022/03/24 08:59:36;;;;;;;37.17;22.85;;;10.10;99.90;;;;;;4914846;29;20214;-67
2022/03/24 09:02:04;;;;;;;33.85;20.48;;;10.20;99.90;;;;;;4915217;29;20230;-67
2022/03/24 09:04:31;;;;;;;33.60;21.42;;;10.30;99.90;;;;;;4913072;29;20302;-68
2022/03/24 09:06:58;;;;;;;33.22;19.42;;;10.40;99.90;;;;;;4918183;29;20206;-69
2022/03/24 09:09:24;;;;;;;27.80;18.40;;;10.50;99.90;;;;;;4916675;29;20222;-67
2022/03/24 09:11:51;;;;;;;33.63;20.48;;;10.70;99.90;;;;;;4914650;29;20222;-67
2022/03/24 09:14:19;;;;;;;35.22;21.75;;;10.70;99.90;;;;;;4914316;29;20214;-69
2022/03/24 09:16:46;;;;;;;33.95;19.98;;;10.80;99.90;;;;;;4915537;29;20239;-68
2022/03/24 09:19:13;;;;;;;33.22;20.55;;;10.90;99.90;;;;;;4915097;29;20198;-68
2022/03/24 09:21:39;;;;;;;38.22;20.42;;;11.00;99.90;;;;;;4915076;29;20226;-68
2022/03/24 09:24:06;;;;;;;33.40;19.70;;;11.00;99.90;;;;;;4913659;29;20341;-67
2022/03/24 09:26:33;;;;;;;39.88;19.83;;;11.10;99.90;;;;;;4912818;29;20207;-67
2022/03/24 09:29:01;;;;;;;33.33;18.10;;;11.20;99.90;;;;;;4916145;29;20205;-67
2022/03/24 09:31:29;;;;;;;38.70;19.63;;;11.40;99.90;;;;;;4914234;29;20317;-67
2022/03/24 09:33:56;;;;;;;36.25;19.73;;;11.40;99.90;;;;;;4904211;29;20202;-68
2022/03/24 09:36:23;;;;;;;29.70;19.33;;;11.40;99.90;;;;;;4914652;29;20210;-69
2022/03/24 09:38:49;;;;;;;28.40;18.30;;;11.50;99.90;;;;;;4913936;29;20663;-68
2022/03/24 09:41:19;;;;;;;33.10;18.90;;;11.60;99.90;;;;;;4913849;29;20434;-68
2022/03/24 09:43:46;;;;;;;31.05;19.83;;;11.60;99.90;;;;;;4900802;29;20207;-67
2022/03/24 09:46:14;;;;;;;32.83;19.15;;;11.70;99.90;;;;;;4914925;29;20297;-68
2022/03/24 09:48:43;;;;;;;37.47;23.02;;;11.70;99.90;;;;;;4910102;29;20266;-68
2022/03/24 09:51:10;;;;;;;28.48;16.52;;;11.80;99.90;;;;;;4913811;29;20223;-67
2022/03/24 09:53:39;;;;;;;32.65;18.45;;;11.90;99.90;;;;;;4912609;29;20550;-68
2022/03/24 09:56:06;;;;;;;32.08;19.92;;;12.10;99.90;;;;;;4915203;29;20207;-67
2022/03/24 09:58:32;;;;;;;30.27;19.60;;;12.20;99.90;;;;;;4913264;29;20203;-67
2022/03/24 10:01:01;;;;;;;27.83;19.70;;;12.30;99.90;;;;;;4917754;29;20742;-67
2022/03/24 10:03:28;;;;;;;32.83;18.45;;;12.30;99.90;;;;;;4911656;29;20573;-67
2022/03/24 10:05:59;;;;;;;34.80;22.33;;;12.30;99.90;;;;;;4910056;29;20697;-68
2022/03/24 10:08:27;;;;;;;27.37;18.70;;;12.30;99.90;;;;;;4912853;29;20462;-67
2022/03/24 10:10:58;;;;;;;29.40;18.23;;;12.40;99.90;;;;;;4913929;29;20500;-68
2022/03/24 10:13:26;;;;;;;31.20;18.80;;;12.50;99.90;;;;;;4914078;29;20484;-67
2022/03/24 10:15:53;;;;;;;31.20;20.17;;;12.60;99.90;;;;;;4914976;29;20473;-67
2022/03/24 10:18:20;;;;;;;31.33;20.00;;;12.70;99.90;;;;;;4913858;29;20477;-66
2022/03/24 10:20:47;;;;;;;28.30;19.27;;;12.80;99.90;;;;;;4913007;29;20980;-67
2022/03/24 10:23:15;;;;;;;31.83;20.20;;;12.80;99.90;;;;;;4913139;29;20971;-67
2022/03/24 10:25:45;;;;;;;35.00;19.50;;;12.80;99.90;;;;;;4911108;29;20478;-67
2022/03/24 10:28:14;;;;;;;34.70;22.13;;;12.90;99.90;;;;;;4910050;29;20838;-68
2022/03/24 10:30:51;;;;;;;37.30;23.90;;;12.90;99.90;;;;;;4909570;29;20570;-66
2022/03/24 10:33:29;;;;;;;32.47;22.20;;;12.90;99.90;;;;;;4912926;29;20467;-67
2022/03/24 10:36:10;;;;;;;31.30;20.00;;;13.00;99.90;;;;;;4908446;29;20481;-67
2022/03/24 10:38:40;;;;;;;25.50;15.60;;;13.00;98.60;;;;;;4914219;29;20466;-66
2022/03/24 10:41:18;;;;;;;24.37;16.57;;;13.10;97.00;;;;;;4912579;29;20829;-67
2022/03/24 10:43:45;;;;;;;21.83;15.37;;;13.30;94.80;;;;;;4913285;29;20474;-66
2022/03/24 10:46:17;;;;;;;24.00;16.03;;;13.30;93.30;;;;;;4913795;29;20952;-66
2022/03/24 10:48:44;;;;;;;24.30;14.10;;;13.30;93.60;;;;;;4913856;29;20539;-66
2022/03/24 10:51:11;;;;;;;25.37;13.30;;;13.30;91.90;;;;;;4902197;29;20491;-66
2022/03/24 10:53:43;;;;;;;21.37;13.50;;;13.40;90.80;;;;;;4914436;29;20588;-67
2022/03/24 10:56:14;;;;;;;20.53;11.87;;;13.50;91.50;;;;;;4902261;29;20474;-67
2022/03/24 10:58:46;;;;;;;19.17;11.27;;;13.50;88.20;;;;;;4914122;29;20473;-66
2022/03/24 11:01:18;;;;;;;18.20;11.93;;;13.50;87.70;;;;;;4913787;29;20492;-70
2022/03/24 11:03:45;;;;;;;21.40;11.83;;;13.60;86.60;;;;;;4913944;29;20876;-68
2022/03/24 11:06:13;;;;;;;17.63;10.97;;;13.60;86.90;;;;;;4913636;29;20466;-68
2022/03/24 11:08:43;;;;;;;16.57;11.10;;;13.70;84.80;;;;;;4914056;29;20474;-68
2022/03/24 11:11:14;;;;;;;15.00;11.03;;;13.70;85.50;;;;;;4913012;29;20505;-69
2022/03/24 11:13:46;;;;;;;14.90;11.33;;;13.80;84.40;;;;;;4897278;29;20495;-68
2022/03/24 11:16:14;;;;;;;17.20;11.67;;;13.60;80.80;;;;;;4907189;29;20470;-69
2022/03/24 11:18:42;;;;;;;22.70;11.47;;;13.50;83.70;;;;;;4912414;29;20991;-67
2022/03/24 11:21:14;;;;;;;14.57;9.70;;;13.60;80.30;;;;;;4913109;29;20609;-66
2022/03/24 11:23:45;;;;;;;14.93;10.53;;;13.80;78.50;;;;;;4914206;29;20842;-67
2022/03/24 11:26:12;;;;;;;16.90;9.10;;;14.00;77.80;;;;;;4910816;29;21012;-67
2022/03/24 11:28:39;;;;;;;14.80;9.50;;;14.00;76.00;;;;;;4914045;29;20839;-67
2022/03/24 11:31:09;;;;;;;15.97;10.20;;;14.00;75.80;;;;;;4912877;29;20975;-67
2022/03/24 11:33:42;;;;;;;13.97;10.33;;;14.10;75.40;;;;;;4914365;29;20466;-67
2022/03/24 11:36:09;;;;;;;21.70;11.97;;;14.00;75.70;;;;;;4913871;29;20478;-67
2022/03/24 11:38:38;;;;;;;17.57;12.17;;;14.00;75.50;;;;;;4913361;29;20532;-68
2022/03/24 11:41:11;;;;;;;15.63;10.17;;;14.10;76.60;;;;;;4911652;29;20987;-67
2022/03/24 11:43:44;;;;;;;19.03;12.37;;;14.30;77.50;;;;;;4914162;29;20550;-67
2022/03/24 11:46:13;;;;;;;19.27;13.33;;;14.40;77.50;;;;;;4914301;29;20883;-67
2022/03/24 11:48:42;;;;;;;18.70;11.97;;;14.50;78.80;;;;;;4916837;29;20490;-67
2022/03/24 11:51:19;;;;;;;21.37;13.17;;;14.50;78.40;;;;;;4915427;29;20509;-67
2022/03/24 11:53:59;;;;;;;20.57;13.53;;;14.40;78.20;;;;;;4899146;29;20480;-68
2022/03/24 11:56:27;;;;;;;23.17;14.97;;;14.40;79.00;;;;;;4898369;29;20538;-68
2022/03/24 11:59:23;;;;;;;22.63;12.30;;;14.40;78.70;;;;;;4916311;29;20480;-68
2022/03/24 12:02:17;;;;;;;22.67;13.90;;;14.50;79.40;;;;;;4916453;29;20565;-67
2022/03/24 12:04:49;;;;;;;18.27;12.80;;;14.50;79.50;;;;;;4917305;29;20465;-69
2022/03/24 12:07:17;;;;;;;20.17;13.10;;;14.50;78.80;;;;;;4917282;29;20466;-67
2022/03/24 12:09:58;;;;;;;18.43;12.87;;;14.70;80.10;;;;;;4916065;29;20462;-67
2022/03/24 12:12:27;;;;;;;22.20;15.30;;;14.80;79.30;;;;;;4897775;29;20918;-66
2022/03/24 12:14:54;;;;;;;20.83;15.07;;;14.70;78.90;;;;;;4898469;29;20546;-67
2022/03/24 12:17:25;;;;;;;21.70;13.23;;;14.70;79.30;;;;;;4906457;29;20530;-68
2022/03/24 12:19:53;;;;;;;18.87;13.53;;;14.70;79.20;;;;;;4916075;29;20497;-67
2022/03/24 12:22:47;;;;;;;20.73;13.40;;;14.80;78.80;;;;;;4916713;29;20891;-68
2022/03/24 12:25:27;;;;;;;16.93;12.13;;;14.90;78.00;;;;;;4916874;29;20864;-67
2022/03/24 12:28:01;;;;;;;21.53;12.67;;;15.00;75.10;;;;;;4916686;29;20592;-67
2022/03/24 12:30:51;;;;;;;18.30;13.40;;;14.90;75.10;;;;;;4915850;29;20521;-66
2022/03/24 12:33:19;;;;;;;16.37;12.20;;;14.90;77.10;;;;;;4916212;29;20936;-67
2022/03/24 12:35:49;;;;;;;20.87;13.90;;;15.00;79.40;;;;;;4915763;29;20886;-68
2022/03/24 12:38:31;;;;;;;25.07;14.53;;;15.00;78.80;;;;;;4916217;29;20549;-67
2022/03/24 12:41:17;;;;;;;19.53;13.33;;;15.10;78.40;;;;;;4915188;29;20561;-67
2022/03/24 12:43:49;;;;;;;21.37;13.30;;;15.20;77.70;;;;;;4916594;29;20561;-68
2022/03/24 12:46:26;;;;;;;17.73;12.50;;;15.20;77.90;;;;;;4916481;29;20459;-67
2022/03/24 12:48:53;;;;;;;21.80;15.13;;;15.30;77.30;;;;;;4916436;29;20764;-67
2022/03/24 12:51:22;;;;;;;19.77;13.50;;;15.30;77.50;;;;;;4915073;29;21029;-67
2022/03/24 12:53:52;;;;;;;20.67;12.87;;;15.30;77.00;;;;;;4915038;29;20550;-67
2022/03/24 12:56:24;;;;;;;19.70;13.07;;;15.40;76.60;;;;;;4911026;29;20475;-67
2022/03/24 12:58:54;;;;;;;17.07;12.20;;;15.40;77.00;;;;;;4915564;29;20467;-67
2022/03/24 13:01:21;;;;;;;18.23;11.43;;;15.40;76.80;;;;;;4915731;29;20498;-67
2022/03/24 13:03:55;;;;;;;16.27;11.40;;;15.40;75.80;;;;;;4916604;29;20470;-66
2022/03/24 13:06:22;;;;;;;16.10;11.10;;;15.40;75.40;;;;;;4915398;29;20529;-67
2022/03/24 13:09:17;;;;;;;16.30;11.43;;;15.40;74.70;;;;;;4916326;29;20501;-66
2022/03/24 13:11:52;;;;;;;14.97;11.67;;;15.40;74.20;;;;;;4915054;29;20644;-67
2022/03/24 13:14:21;;;;;;;17.73;12.13;;;15.50;75.90;;;;;;4916131;29;21334;-67
2022/03/24 13:17:02;;;;;;;18.30;12.40;;;15.60;76.80;;;;;;4915852;29;20469;-67
2022/03/24 13:19:29;;;;;;;19.93;12.83;;;15.60;76.00;;;;;;4915010;29;20545;-66
2022/03/24 13:21:56;;;;;;;17.97;11.03;;;15.60;74.20;;;;;;4915246;29;20575;-67
2022/03/24 13:24:24;;;;;;;13.37;10.70;;;15.60;72.10;;;;;;4916340;29;20470;-67
2022/03/24 13:26:58;;;;;;;15.97;10.93;;;15.60;72.90;;;;;;4915749;29;20481;-68
2022/03/24 13:29:37;;;;;;;21.10;13.20;;;15.60;73.60;;;;;;4916146;29;20498;-67
2022/03/24 13:32:15;;;;;;;16.80;13.40;;;15.60;75.10;;;;;;4915716;29;20503;-68
2022/03/24 13:34:51;;;;;;;18.30;10.80;;;15.70;75.20;;;;;;4915103;29;20467;-67
2022/03/24 13:37:20;;;;;;;15.30;10.57;;;15.70;74.70;;;;;;4915363;29;20474;-68
2022/03/24 13:39:49;;;;;;;19.07;11.70;;;15.60;72.70;;;;;;4914724;29;20459;-67
2022/03/24 13:42:17;;;;;;;19.27;13.07;;;15.60;73.20;;;;;;4915288;29;20486;-67
2022/03/24 13:44:46;;;;;;;18.90;13.60;;;15.60;75.00;;;;;;4914288;29;20522;-67
2022/03/24 13:47:17;;;;;;;21.03;13.00;;;15.60;76.10;;;;;;4915176;29;20473;-66
2022/03/24 13:49:45;;;;;;;22.10;13.67;;;15.60;76.10;;;;;;4914049;29;20949;-68
2022/03/24 13:52:33;;;;;;;20.90;14.23;;;15.60;76.40;;;;;;4915006;29;20487;-67
2022/03/24 13:55:02;;;;;;;20.77;13.93;;;15.60;77.80;;;;;;4915780;29;20521;-67
2022/03/24 13:57:29;;;;;;;20.10;14.00;;;15.50;79.00;;;;;;4912856;29;20473;-67
2022/03/24 13:59:57;;;;;;;21.73;13.83;;;15.50;79.20;;;;;;4914371;29;20491;-68
2022/03/24 14:02:28;;;;;;;24.47;13.80;;;15.50;78.80;;;;;;4915284;29;20502;-67
2022/03/24 14:05:07;;;;;;;22.03;12.40;;;15.50;79.40;;;;;;4914972;29;20565;-68
2022/03/24 14:07:49;;;;;;;19.67;13.63;;;15.50;79.40;;;;;;4915101;29;20566;-68
2022/03/24 14:10:16;;;;;;;19.80;13.87;;;15.50;79.60;;;;;;4913753;29;20548;-67
2022/03/24 14:12:51;;;;;;;21.03;14.40;;;15.50;80.20;;;;;;4914586;29;20485;-68
2022/03/24 14:15:21;;;;;;;23.57;14.97;;;15.50;80.70;;;;;;4914803;29;20915;-68
2022/03/24 14:18:19;;;;;;;23.60;15.07;;;15.50;82.00;;;;;;4911091;29;20497;-67
2022/03/24 14:20:49;;;;;;;25.63;14.13;;;15.50;82.00;;;;;;4912914;29;20478;-67
2022/03/24 14:23:26;;;;;;;22.53;14.40;;;15.50;82.20;;;;;;4915340;29;20462;-66
2022/03/24 14:25:53;;;;;;;20.97;12.70;;;15.50;83.50;;;;;;4914769;29;20941;-67
2022/03/24 14:28:37;;;;;;;20.73;14.43;;;15.50;83.30;;;;;;4916768;29;20522;-67
2022/03/24 14:31:26;;;;;;;21.47;13.87;;;15.50;83.10;;;;;;4897980;29;20559;-66
2022/03/24 14:33:56;;;;;;;25.47;15.33;;;15.50;82.70;;;;;;4897530;29;20555;-67
2022/03/24 14:36:24;;;;;;;21.13;14.30;;;15.50;83.60;;;;;;4897834;29;21002;-67
2022/03/24 14:39:15;;;;;;;18.90;13.47;;;15.40;82.70;;;;;;4914691;29;20553;-67
2022/03/24 14:41:43;;;;;;;19.50;13.47;;;15.50;82.40;;;;;;4913447;29;21043;-67
2022/03/24 14:44:11;;;;;;;24.30;14.10;;;15.40;83.10;;;;;;4914836;29;20471;-67
2022/03/24 14:46:40;;;;;;;24.53;13.77;;;15.50;83.00;;;;;;4914014;29;20550;-66
2022/03/24 14:49:08;;;;;;;16.50;12.57;;;15.40;83.90;;;;;;4913917;29;20466;-67
2022/03/24 14:51:36;;;;;;;18.67;12.47;;;15.40;83.50;;;;;;4913501;29;20490;-67
2022/03/24 14:54:04;;;;;;;23.00;15.57;;;15.40;84.00;;;;;;4914508;29;20494;-68
2022/03/24 14:56:31;;;;;;;20.47;14.23;;;15.40;83.20;;;;;;4913714;29;21331;-67
2022/03/24 14:58:58;;;;;;;22.27;13.90;;;15.40;83.10;;;;;;4914022;29;20522;-66
2022/03/24 15:01:25;;;;;;;25.90;13.70;;;15.30;82.80;;;;;;4911572;29;20525;-68
2022/03/24 15:03:53;;;;;;;19.80;14.67;;;15.30;83.20;;;;;;4914264;29;20463;-67
2022/03/24 15:06:21;;;;;;;19.63;13.23;;;15.40;83.20;;;;;;4911210;29;20471;-66
2022/03/24 15:08:49;;;;;;;22.57;15.03;;;15.40;83.10;;;;;;4913642;29;20846;-67
2022/03/24 15:11:16;;;;;;;21.33;14.20;;;15.30;83.40;;;;;;4913144;29;20872;-67
2022/03/24 15:16:02;;;;;;;19.63;13.50;;;15.30;83.20;;;;;;4914633;29;20467;-66
2022/03/24 15:16:29;;;;;;;23.10;15.00;;;15.30;83.10;;;;;;4913634;29;20934;-66
2022/03/24 15:18:57;;;;;;;20.30;14.47;;;15.30;84.20;;;;;;4913970;29;20883;-66
2022/03/24 15:21:26;;;;;;;22.87;14.13;;;15.20;82.80;;;;;;4913306;29;20490;-66
2022/03/24 15:23:54;;;;;;;21.77;14.10;;;15.20;83.80;;;;;;4917808;29;20555;-68
2022/03/24 15:26:21;;;;;;;23.37;14.73;;;15.20;83.90;;;;;;4916948;29;20488;-67
2022/03/24 15:28:48;;;;;;;28.63;15.77;;;15.20;84.30;;;;;;4917884;29;20887;-67
2022/03/24 15:31:16;;;;;;;22.60;14.50;;;15.20;84.10;;;;;;4917125;29;20490;-67
2022/03/24 15:33:43;;;;;;;20.83;13.77;;;15.20;83.30;;;;;;4917624;29;20478;-67
2022/03/24 15:36:11;;;;;;;22.67;14.53;;;15.20;84.40;;;;;;4917522;29;20474;-68
2022/03/24 15:38:38;;;;;;;23.93;13.43;;;15.20;84.30;;;;;;4917310;29;20466;-67
2022/03/24 15:41:05;;;;;;;17.20;12.90;;;15.20;83.80;;;;;;4916748;29;20541;-67
2022/03/24 15:43:34;;;;;;;25.10;14.40;;;15.10;83.60;;;;;;4917565;29;21011;-67
2022/03/24 15:46:01;;;;;;;18.93;13.20;;;15.10;83.70;;;;;;4915772;29;20462;-68
2022/03/24 15:48:27;;;;;;;20.70;13.63;;;15.10;83.60;;;;;;4917172;29;20470;-66
2022/03/24 15:50:54;;;;;;;18.67;13.43;;;15.10;83.90;;;;;;4916355;29;20495;-68
2022/03/24 15:53:22;;;;;;;21.70;14.87;;;15.10;84.60;;;;;;4918133;29;20845;-67
2022/03/24 15:55:48;;;;;;;21.37;15.70;;;15.10;85.00;;;;;;4916719;29;20545;-67
2022/03/24 15:58:15;;;;;;;23.10;13.20;;;15.00;84.50;;;;;;4916888;29;20462;-67
2022/03/24 16:00:42;;;;;;;21.93;15.07;;;15.00;84.60;;;;;;4916660;29;20505;-67
2022/03/24 16:03:09;;;;;;;22.00;14.47;;;15.00;85.30;;;;;;4916873;29;21615;-67
2022/03/24 16:05:36;;;;;;;19.10;15.20;;;15.00;85.20;;;;;;4915315;29;20471;-66
2022/03/24 16:08:02;;;;;;;21.33;15.40;;;15.00;85.70;;;;;;4916809;29;20521;-68
2022/03/24 16:10:30;;;;;;;25.57;16.57;;;15.00;86.30;;;;;;4916327;29;20470;-69
2022/03/24 16:12:57;;;;;;;26.47;15.70;;;15.00;86.70;;;;;;4917164;29;20490;-67
2022/03/24 16:15:25;;;;;;;26.63;17.27;;;15.00;86.60;;;;;;4917164;29;20470;-68
2022/03/24 16:17:51;;;;;;;23.60;15.70;;;14.90;86.70;;;;;;4911153;29;20466;-66
2022/03/24 16:20:19;;;;;;;25.60;16.00;;;14.90;86.70;;;;;;4915952;29;20836;-67
2022/03/24 16:22:46;;;;;;;20.83;15.57;;;14.90;86.30;;;;;;4917051;29;20473;-68
2022/03/24 16:25:13;;;;;;;27.27;16.43;;;14.80;86.30;;;;;;4917128;29;20897;-69
2022/03/24 16:27:41;;;;;;;24.93;18.10;;;14.80;86.60;;;;;;4916272;29;20474;-65
2022/03/24 16:30:09;;;;;;;22.00;15.80;;;14.70;86.50;;;;;;4916147;29;20462;-67
2022/03/24 16:32:36;;;;;;;24.57;15.93;;;14.70;86.90;;;;;;4916244;29;20985;-66
2022/03/24 16:35:03;;;;;;;22.30;14.70;;;14.70;87.00;;;;;;4915856;29;20546;-66
2022/03/24 16:37:29;;;;;;;23.70;15.37;;;14.60;88.10;;;;;;4916232;29;20526;-66
2022/03/24 16:39:56;;;;;;;26.33;15.83;;;14.60;87.40;;;;;;4916244;29;20883;-67
2022/03/24 16:42:23;;;;;;;27.97;16.53;;;14.60;87.90;;;;;;4916200;29;20514;-67
2022/03/24 16:44:52;;;;;;;22.87;15.93;;;14.60;87.90;;;;;;4916851;29;20589;-68
2022/03/24 16:47:19;;;;;;;24.23;17.50;;;14.50;88.40;;;;;;4916386;29;20513;-65
2022/03/24 16:49:45;;;;;;;27.90;16.50;;;14.40;88.20;;;;;;4915727;29;20489;-68
2022/03/24 16:52:13;;;;;;;25.57;17.20;;;14.40;88.90;;;;;;4916633;29;20494;-67
2022/03/24 16:54:40;;;;;;;26.70;17.13;;;14.30;89.00;;;;;;4916397;29;20932;-67
2022/03/24 16:57:06;;;;;;;22.23;16.43;;;14.30;89.50;;;;;;4915686;29;20467;-68
2022/03/24 16:59:33;;;;;;;28.37;16.43;;;14.30;89.50;;;;;;4915864;29;20870;-67
2022/03/24 17:02:02;;;;;;;19.57;15.07;;;14.10;90.00;;;;;;4914908;29;20490;-68
2022/03/24 17:04:28;;;;;;;28.77;17.40;;;14.00;90.80;;;;;;4915565;29;20537;-67
2022/03/24 17:06:55;;;;;;;26.90;17.93;;;14.00;90.30;;;;;;4915266;29;20530;-67
2022/03/24 17:09:22;;;;;;;22.40;16.00;;;13.90;90.30;;;;;;4914744;29;20547;-69
2022/03/24 17:11:49;;;;;;;27.05;17.73;;;13.90;90.70;;;;;;4912035;29;20471;-66
2022/03/24 17:14:15;;;;;;;25.40;15.97;;;13.90;90.80;;;;;;4916182;29;20222;-66
2022/03/24 17:16:42;;;;;;;27.20;15.53;;;13.80;90.60;;;;;;4905748;29;20464;-68
2022/03/24 17:19:10;;;;;;;26.83;16.93;;;13.80;91.00;;;;;;4906858;29;20817;-66
2022/03/24 17:21:37;;;;;;;28.70;17.10;;;13.70;91.30;;;;;;4902785;29;21047;-67
2022/03/24 17:24:04;;;;;;;23.63;16.47;;;13.60;91.50;;;;;;4915665;29;20585;-67
2022/03/24 17:26:30;;;;;;;28.13;16.60;;;13.50;91.60;;;;;;4914872;29;20466;-67
2022/03/24 17:28:57;;;;;;;22.03;16.83;;;13.40;91.80;;;;;;4905313;29;20562;-67
2022/03/24 17:31:25;;;;;;;28.70;17.00;;;13.40;92.10;;;;;;4901372;29;20489;-67
2022/03/24 17:33:52;;;;;;;24.80;16.80;;;13.30;92.80;;;;;;4903855;29;20484;-67
2022/03/24 17:36:20;;;;;;;26.63;17.50;;;13.20;92.70;;;;;;4921808;29;20525;-67
2022/03/24 17:38:47;;;;;;;33.23;18.10;;;13.20;93.10;;;;;;4922633;29;20462;-67
2022/03/24 17:41:13;;;;;;;24.40;16.93;;;13.10;93.30;;;;;;4918850;29;20486;-67